sensor_id;sensor_type;location;lat;lon;timestamp;pressure;altitude;pressure_sealevel;temperature
71081;BMP180;58740;50.672;18.690;2023-05-20T00:01:02;99933.20;;;12.22
71081;BMP180;58740;50.672;18.690;2023-05-20T00:03:30;99925.80;;;12.20
71081;BMP180;58740;50.672;18.690;2023-05-20T00:05:58;99921.00;;;12.10
71081;BMP180;58740;50.672;18.690;2023-05-20T00:08:26;99916.80;;;12.10
71081;BMP180;58740;50.672;18.690;2023-05-20T00:10:53;99918.40;;;12.10
71081;BMP180;58740;50.672;18.690;2023-05-20T00:13:21;99914.20;;;12.10
71081;BMP180;58740;50.672;18.690;2023-05-20T00:15:51;99912.00;;;12.10
71081;BMP180;58740;50.672;18.690;2023-05-20T00:18:19;99909.00;;;12.10
71081;BMP180;58740;50.672;18.690;2023-05-20T00:20:47;99904.60;;;12.14
71081;BMP180;58740;50.672;18.690;2023-05-20T00:23:15;99908.80;;;12.18
71081;BMP180;58740;50.672;18.690;2023-05-20T00:25:42;99909.00;;;12.20
71081;BMP180;58740;50.672;18.690;2023-05-20T00:28:10;99914.40;;;12.10
71081;BMP180;58740;50.672;18.690;2023-05-20T00:30:41;99911.00;;;12.10
71081;BMP180;58740;50.672;18.690;2023-05-20T00:33:09;99914.20;;;12.10
71081;BMP180;58740;50.672;18.690;2023-05-20T00:35:37;99909.40;;;12.10
71081;BMP180;58740;50.672;18.690;2023-05-20T00:38:04;99908.00;;;12.10
71081;BMP180;58740;50.672;18.690;2023-05-20T00:40:32;99908.80;;;12.10
71081;BMP180;58740;50.672;18.690;2023-05-20T00:43:00;99901.60;;;12.10
71081;BMP180;58740;50.672;18.690;2023-05-20T00:45:28;99906.40;;;12.10
71081;BMP180;58740;50.672;18.690;2023-05-20T00:47:56;99906.40;;;12.10
71081;BMP180;58740;50.672;18.690;2023-05-20T00:50:26;99910.40;;;12.10
71081;BMP180;58740;50.672;18.690;2023-05-20T00:52:54;99904.20;;;12.10
71081;BMP180;58740;50.672;18.690;2023-05-20T00:55:22;99905.00;;;12.10
71081;BMP180;58740;50.672;18.690;2023-05-20T00:57:52;99907.40;;;12.10
71081;BMP180;58740;50.672;18.690;2023-05-20T01:00:20;99906.80;;;12.10
71081;BMP180;58740;50.672;18.690;2023-05-20T01:02:48;99902.20;;;12.10
71081;BMP180;58740;50.672;18.690;2023-05-20T01:05:16;99903.60;;;12.10
71081;BMP180;58740;50.672;18.690;2023-05-20T01:07:43;99904.60;;;12.00
71081;BMP180;58740;50.672;18.690;2023-05-20T01:10:12;99901.60;;;12.00
71081;BMP180;58740;50.672;18.690;2023-05-20T01:12:53;99899.80;;;11.98
71081;BMP180;58740;50.672;18.690;2023-05-20T01:15:26;99899.00;;;11.90
71081;BMP180;58740;50.672;18.690;2023-05-20T01:17:59;99902.00;;;12.00
71081;BMP180;58740;50.672;18.690;2023-05-20T01:20:29;99898.40;;;12.00
71081;BMP180;58740;50.672;18.690;2023-05-20T01:22:59;99897.40;;;12.00
71081;BMP180;58740;50.672;18.690;2023-05-20T01:25:27;99896.60;;;12.00
71081;BMP180;58740;50.672;18.690;2023-05-20T01:27:56;99895.20;;;12.00
71081;BMP180;58740;50.672;18.690;2023-05-20T01:30:37;99894.60;;;11.96
71081;BMP180;58740;50.672;18.690;2023-05-20T01:33:10;99900.20;;;11.90
71081;BMP180;58740;50.672;18.690;2023-05-20T01:35:40;99903.00;;;11.90
71081;BMP180;58740;50.672;18.690;2023-05-20T01:38:08;99903.60;;;11.90
71081;BMP180;58740;50.672;18.690;2023-05-20T01:40:37;99905.00;;;11.90
71081;BMP180;58740;50.672;18.690;2023-05-20T01:43:06;99904.20;;;11.90
71081;BMP180;58740;50.672;18.690;2023-05-20T01:45:34;99898.60;;;11.90
71081;BMP180;58740;50.672;18.690;2023-05-20T01:48:03;99899.20;;;11.90
71081;BMP180;58740;50.672;18.690;2023-05-20T01:50:31;99896.60;;;11.90
71081;BMP180;58740;50.672;18.690;2023-05-20T01:52:59;99893.00;;;11.90
71081;BMP180;58740;50.672;18.690;2023-05-20T01:55:26;99885.60;;;11.90
71081;BMP180;58740;50.672;18.690;2023-05-20T01:57:54;99886.40;;;11.90
71081;BMP180;58740;50.672;18.690;2023-05-20T02:00:22;99880.00;;;11.90
71081;BMP180;58740;50.672;18.690;2023-05-20T02:02:50;99875.40;;;11.90
71081;BMP180;58740;50.672;18.690;2023-05-20T02:05:18;99878.80;;;11.90
71081;BMP180;58740;50.672;18.690;2023-05-20T02:07:45;99882.60;;;11.90
71081;BMP180;58740;50.672;18.690;2023-05-20T02:10:13;99882.40;;;11.90
71081;BMP180;58740;50.672;18.690;2023-05-20T02:12:41;99886.60;;;11.90
71081;BMP180;58740;50.672;18.690;2023-05-20T02:15:09;99889.20;;;11.90
71081;BMP180;58740;50.672;18.690;2023-05-20T02:17:37;99896.60;;;11.90
71081;BMP180;58740;50.672;18.690;2023-05-20T02:20:07;99890.60;;;11.90
71081;BMP180;58740;50.672;18.690;2023-05-20T02:22:35;99892.80;;;11.90
71081;BMP180;58740;50.672;18.690;2023-05-20T02:25:03;99889.00;;;11.90
71081;BMP180;58740;50.672;18.690;2023-05-20T02:27:31;99879.40;;;11.90
71081;BMP180;58740;50.672;18.690;2023-05-20T02:29:59;99882.00;;;11.90
71081;BMP180;58740;50.672;18.690;2023-05-20T02:32:27;99878.80;;;11.90
71081;BMP180;58740;50.672;18.690;2023-05-20T02:34:56;99880.80;;;11.90
71081;BMP180;58740;50.672;18.690;2023-05-20T02:37:23;99885.20;;;11.90
71081;BMP180;58740;50.672;18.690;2023-05-20T02:39:51;99891.20;;;11.90
71081;BMP180;58740;50.672;18.690;2023-05-20T02:42:19;99895.40;;;11.90
71081;BMP180;58740;50.672;18.690;2023-05-20T02:44:47;99894.80;;;11.90
71081;BMP180;58740;50.672;18.690;2023-05-20T02:47:14;99897.00;;;11.90
71081;BMP180;58740;50.672;18.690;2023-05-20T02:49:42;99900.80;;;11.90
71081;BMP180;58740;50.672;18.690;2023-05-20T02:52:10;99901.40;;;11.90
71081;BMP180;58740;50.672;18.690;2023-05-20T02:54:38;99896.80;;;11.90
71081;BMP180;58740;50.672;18.690;2023-05-20T02:57:06;99894.00;;;11.96
71081;BMP180;58740;50.672;18.690;2023-05-20T02:59:33;99894.40;;;11.90
71081;BMP180;58740;50.672;18.690;2023-05-20T03:02:01;99892.80;;;11.98
71081;BMP180;58740;50.672;18.690;2023-05-20T03:04:29;99893.60;;;11.92
71081;BMP180;58740;50.672;18.690;2023-05-20T03:06:58;99890.60;;;11.92
71081;BMP180;58740;50.672;18.690;2023-05-20T03:09:25;99895.80;;;11.90
71081;BMP180;58740;50.672;18.690;2023-05-20T03:11:53;99902.60;;;11.92
71081;BMP180;58740;50.672;18.690;2023-05-20T03:14:21;99902.00;;;11.90
71081;BMP180;58740;50.672;18.690;2023-05-20T03:16:49;99907.60;;;11.90
71081;BMP180;58740;50.672;18.690;2023-05-20T03:19:24;99907.20;;;11.90
71081;BMP180;58740;50.672;18.690;2023-05-20T03:22:01;99903.60;;;11.90
71081;BMP180;58740;50.672;18.690;2023-05-20T03:24:28;99910.60;;;11.80
71081;BMP180;58740;50.672;18.690;2023-05-20T03:26:56;99906.60;;;11.80
71081;BMP180;58740;50.672;18.690;2023-05-20T03:29:24;99903.20;;;11.80
71081;BMP180;58740;50.672;18.690;2023-05-20T03:31:52;99908.20;;;11.80
71081;BMP180;58740;50.672;18.690;2023-05-20T03:34:20;99907.20;;;11.80
71081;BMP180;58740;50.672;18.690;2023-05-20T03:36:50;99911.60;;;11.80
71081;BMP180;58740;50.672;18.690;2023-05-20T03:39:18;99911.40;;;11.80
71081;BMP180;58740;50.672;18.690;2023-05-20T03:41:45;99915.00;;;11.80
71081;BMP180;58740;50.672;18.690;2023-05-20T03:44:13;99913.60;;;11.80
71081;BMP180;58740;50.672;18.690;2023-05-20T03:46:41;99919.80;;;11.80
71081;BMP180;58740;50.672;18.690;2023-05-20T03:49:08;99921.60;;;11.80
71081;BMP180;58740;50.672;18.690;2023-05-20T03:51:36;99924.60;;;11.88
71081;BMP180;58740;50.672;18.690;2023-05-20T03:54:04;99927.20;;;11.88
71081;BMP180;58740;50.672;18.690;2023-05-20T03:56:32;99926.80;;;11.90
71081;BMP180;58740;50.672;18.690;2023-05-20T03:59:00;99932.40;;;11.90
71081;BMP180;58740;50.672;18.690;2023-05-20T04:01:27;99937.60;;;11.90
71081;BMP180;58740;50.672;18.690;2023-05-20T04:03:55;99931.40;;;11.90
71081;BMP180;58740;50.672;18.690;2023-05-20T04:06:23;99933.00;;;11.90
71081;BMP180;58740;50.672;18.690;2023-05-20T04:08:51;99929.20;;;11.90
71081;BMP180;58740;50.672;18.690;2023-05-20T04:11:19;99927.20;;;11.90
71081;BMP180;58740;50.672;18.690;2023-05-20T04:13:47;99924.00;;;11.92
71081;BMP180;58740;50.672;18.690;2023-05-20T04:16:15;99921.80;;;11.98
71081;BMP180;58740;50.672;18.690;2023-05-20T04:18:43;99921.20;;;12.00
71081;BMP180;58740;50.672;18.690;2023-05-20T04:21:12;99920.00;;;12.00
71081;BMP180;58740;50.672;18.690;2023-05-20T04:23:40;99920.80;;;12.00
71081;BMP180;58740;50.672;18.690;2023-05-20T04:26:08;99922.60;;;12.00
71081;BMP180;58740;50.672;18.690;2023-05-20T04:28:36;99921.60;;;12.10
71081;BMP180;58740;50.672;18.690;2023-05-20T04:31:04;99922.20;;;12.10
71081;BMP180;58740;50.672;18.690;2023-05-20T04:33:32;99917.40;;;12.10
71081;BMP180;58740;50.672;18.690;2023-05-20T04:36:08;99913.60;;;12.10
71081;BMP180;58740;50.672;18.690;2023-05-20T04:38:37;99912.20;;;12.10
71081;BMP180;58740;50.672;18.690;2023-05-20T04:41:04;99908.00;;;12.10
71081;BMP180;58740;50.672;18.690;2023-05-20T04:43:33;99911.40;;;12.10
71081;BMP180;58740;50.672;18.690;2023-05-20T04:46:01;99908.60;;;12.16
71081;BMP180;58740;50.672;18.690;2023-05-20T04:48:33;99906.80;;;12.20
71081;BMP180;58740;50.672;18.690;2023-05-20T04:51:01;99910.40;;;12.20
71081;BMP180;58740;50.672;18.690;2023-05-20T04:53:28;99913.00;;;12.20
71081;BMP180;58740;50.672;18.690;2023-05-20T04:56:00;99911.00;;;12.20
71081;BMP180;58740;50.672;18.690;2023-05-20T04:58:29;99910.00;;;12.20
71081;BMP180;58740;50.672;18.690;2023-05-20T05:00:58;99915.60;;;12.20
71081;BMP180;58740;50.672;18.690;2023-05-20T05:03:25;99909.00;;;12.20
71081;BMP180;58740;50.672;18.690;2023-05-20T05:05:57;99912.00;;;12.20
71081;BMP180;58740;50.672;18.690;2023-05-20T05:08:25;99914.80;;;12.24
71081;BMP180;58740;50.672;18.690;2023-05-20T05:10:53;99921.60;;;12.26
71081;BMP180;58740;50.672;18.690;2023-05-20T05:13:21;99924.20;;;12.28
71081;BMP180;58740;50.672;18.690;2023-05-20T05:16:00;99926.60;;;12.30
71081;BMP180;58740;50.672;18.690;2023-05-20T05:18:29;99926.00;;;12.30
71081;BMP180;58740;50.672;18.690;2023-05-20T05:21:05;99931.00;;;12.30
71081;BMP180;58740;50.672;18.690;2023-05-20T05:23:33;99933.20;;;12.30
71081;BMP180;58740;50.672;18.690;2023-05-20T05:26:00;99935.60;;;12.30
71081;BMP180;58740;50.672;18.690;2023-05-20T05:28:28;99941.40;;;12.30
71081;BMP180;58740;50.672;18.690;2023-05-20T05:30:56;99939.40;;;12.30
71081;BMP180;58740;50.672;18.690;2023-05-20T05:33:24;99949.00;;;12.30
71081;BMP180;58740;50.672;18.690;2023-05-20T05:35:52;99946.80;;;12.30
71081;BMP180;58740;50.672;18.690;2023-05-20T05:38:20;99950.20;;;12.30
71081;BMP180;58740;50.672;18.690;2023-05-20T05:40:48;99946.60;;;12.30
71081;BMP180;58740;50.672;18.690;2023-05-20T05:43:16;99943.60;;;12.30
71081;BMP180;58740;50.672;18.690;2023-05-20T05:45:43;99948.80;;;12.30
71081;BMP180;58740;50.672;18.690;2023-05-20T05:48:11;99946.00;;;12.34
71081;BMP180;58740;50.672;18.690;2023-05-20T05:50:44;99938.60;;;12.40
71081;BMP180;58740;50.672;18.690;2023-05-20T05:53:12;99934.20;;;12.40
71081;BMP180;58740;50.672;18.690;2023-05-20T05:55:40;99932.00;;;12.40
71081;BMP180;58740;50.672;18.690;2023-05-20T05:58:08;99932.60;;;12.40
71081;BMP180;58740;50.672;18.690;2023-05-20T06:00:35;99933.60;;;12.40
71081;BMP180;58740;50.672;18.690;2023-05-20T06:03:03;99928.60;;;12.40
71081;BMP180;58740;50.672;18.690;2023-05-20T06:05:31;99929.00;;;12.40
71081;BMP180;58740;50.672;18.690;2023-05-20T06:08:00;99927.40;;;12.50
71081;BMP180;58740;50.672;18.690;2023-05-20T06:10:27;99927.00;;;12.50
71081;BMP180;58740;50.672;18.690;2023-05-20T06:12:55;99925.40;;;12.60
71081;BMP180;58740;50.672;18.690;2023-05-20T06:15:23;99922.20;;;12.60
71081;BMP180;58740;50.672;18.690;2023-05-20T06:17:51;99921.40;;;12.60
71081;BMP180;58740;50.672;18.690;2023-05-20T06:20:19;99921.80;;;12.70
71081;BMP180;58740;50.672;18.690;2023-05-20T06:22:47;99915.60;;;12.70
71081;BMP180;58740;50.672;18.690;2023-05-20T06:25:14;99909.00;;;12.80
71081;BMP180;58740;50.672;18.690;2023-05-20T06:27:42;99910.60;;;12.80
71081;BMP180;58740;50.672;18.690;2023-05-20T06:30:11;99911.40;;;12.80
71081;BMP180;58740;50.672;18.690;2023-05-20T06:32:38;99908.40;;;12.90
71081;BMP180;58740;50.672;18.690;2023-05-20T06:35:07;99903.60;;;12.90
71081;BMP180;58740;50.672;18.690;2023-05-20T06:37:35;99904.60;;;12.90
71081;BMP180;58740;50.672;18.690;2023-05-20T06:40:03;99905.00;;;13.00
71081;BMP180;58740;50.672;18.690;2023-05-20T06:42:31;99906.00;;;13.00
71081;BMP180;58740;50.672;18.690;2023-05-20T06:44:59;99904.60;;;13.10
71081;BMP180;58740;50.672;18.690;2023-05-20T06:47:27;99906.60;;;13.10
71081;BMP180;58740;50.672;18.690;2023-05-20T06:49:55;99914.00;;;13.20
71081;BMP180;58740;50.672;18.690;2023-05-20T06:52:22;99915.00;;;13.20
71081;BMP180;58740;50.672;18.690;2023-05-20T06:54:50;99917.80;;;13.20
71081;BMP180;58740;50.672;18.690;2023-05-20T06:57:18;99920.40;;;13.26
71081;BMP180;58740;50.672;18.690;2023-05-20T06:59:45;99923.40;;;13.30
71081;BMP180;58740;50.672;18.690;2023-05-20T07:02:13;99922.60;;;13.30
71081;BMP180;58740;50.672;18.690;2023-05-20T07:04:41;99917.20;;;13.30
71081;BMP180;58740;50.672;18.690;2023-05-20T07:07:09;99916.20;;;13.30
71081;BMP180;58740;50.672;18.690;2023-05-20T07:09:37;99907.80;;;13.30
71081;BMP180;58740;50.672;18.690;2023-05-20T07:12:05;99913.20;;;13.30
71081;BMP180;58740;50.672;18.690;2023-05-20T07:14:35;99911.00;;;13.30
71081;BMP180;58740;50.672;18.690;2023-05-20T07:17:04;99910.40;;;13.30
71081;BMP180;58740;50.672;18.690;2023-05-20T07:19:32;99911.00;;;13.30
71081;BMP180;58740;50.672;18.690;2023-05-20T07:22:01;99905.20;;;13.34
71081;BMP180;58740;50.672;18.690;2023-05-20T07:24:29;99900.80;;;13.40
71081;BMP180;58740;50.672;18.690;2023-05-20T07:27:00;99897.60;;;13.40
71081;BMP180;58740;50.672;18.690;2023-05-20T07:29:29;99897.20;;;13.40
71081;BMP180;58740;50.672;18.690;2023-05-20T07:31:59;99895.00;;;13.44
71081;BMP180;58740;50.672;18.690;2023-05-20T07:34:29;99888.40;;;13.50
71081;BMP180;58740;50.672;18.690;2023-05-20T07:36:59;99886.80;;;13.56
71081;BMP180;58740;50.672;18.690;2023-05-20T07:39:31;99888.40;;;13.60
71081;BMP180;58740;50.672;18.690;2023-05-20T07:41:59;99891.40;;;13.62
71081;BMP180;58740;50.672;18.690;2023-05-20T07:44:26;99895.60;;;13.70
71081;BMP180;58740;50.672;18.690;2023-05-20T07:46:57;99892.00;;;13.70
71081;BMP180;58740;50.672;18.690;2023-05-20T07:49:25;99894.80;;;13.80
71081;BMP180;58740;50.672;18.690;2023-05-20T07:51:53;99894.40;;;13.80
71081;BMP180;58740;50.672;18.690;2023-05-20T07:54:23;99894.40;;;13.90
71081;BMP180;58740;50.672;18.690;2023-05-20T07:56:51;99890.00;;;13.90
71081;BMP180;58740;50.672;18.690;2023-05-20T07:59:19;99886.40;;;14.00
71081;BMP180;58740;50.672;18.690;2023-05-20T08:01:48;99885.80;;;14.08
71081;BMP180;58740;50.672;18.690;2023-05-20T08:04:16;99882.00;;;14.10
71081;BMP180;58740;50.672;18.690;2023-05-20T08:06:44;99880.20;;;14.20
71081;BMP180;58740;50.672;18.690;2023-05-20T08:09:13;99879.00;;;14.20
71081;BMP180;58740;50.672;18.690;2023-05-20T08:11:41;99876.20;;;14.30
71081;BMP180;58740;50.672;18.690;2023-05-20T08:14:09;99873.00;;;14.30
71081;BMP180;58740;50.672;18.690;2023-05-20T08:16:36;99870.00;;;14.30
71081;BMP180;58740;50.672;18.690;2023-05-20T08:19:05;99871.40;;;14.40
71081;BMP180;58740;50.672;18.690;2023-05-20T08:21:33;99865.60;;;14.40
71081;BMP180;58740;50.672;18.690;2023-05-20T08:24:03;99862.60;;;14.40
71081;BMP180;58740;50.672;18.690;2023-05-20T08:26:31;99862.00;;;14.50
71081;BMP180;58740;50.672;18.690;2023-05-20T08:28:59;99857.40;;;14.50
71081;BMP180;58740;50.672;18.690;2023-05-20T08:31:27;99855.40;;;14.58
71081;BMP180;58740;50.672;18.690;2023-05-20T08:33:55;99849.60;;;14.60
71081;BMP180;58740;50.672;18.690;2023-05-20T08:36:23;99847.40;;;14.60
71081;BMP180;58740;50.672;18.690;2023-05-20T08:38:51;99848.40;;;14.64
71081;BMP180;58740;50.672;18.690;2023-05-20T08:41:18;99853.80;;;14.70
71081;BMP180;58740;50.672;18.690;2023-05-20T08:43:49;99858.20;;;14.70
71081;BMP180;58740;50.672;18.690;2023-05-20T08:46:20;99863.20;;;14.80
71081;BMP180;58740;50.672;18.690;2023-05-20T08:48:49;99858.20;;;14.80
71081;BMP180;58740;50.672;18.690;2023-05-20T08:51:20;99861.60;;;14.90
71081;BMP180;58740;50.672;18.690;2023-05-20T08:53:50;99864.40;;;14.90
71081;BMP180;58740;50.672;18.690;2023-05-20T08:56:19;99866.20;;;14.96
71081;BMP180;58740;50.672;18.690;2023-05-20T08:58:48;99869.80;;;15.00
71081;BMP180;58740;50.672;18.690;2023-05-20T09:01:16;99865.40;;;15.00
71081;BMP180;58740;50.672;18.690;2023-05-20T09:03:44;99861.60;;;15.02
71081;BMP180;58740;50.672;18.690;2023-05-20T09:06:16;99861.20;;;15.10
71081;BMP180;58740;50.672;18.690;2023-05-20T09:08:48;99861.80;;;15.10
71081;BMP180;58740;50.672;18.690;2023-05-20T09:11:19;99858.40;;;15.20
71081;BMP180;58740;50.672;18.690;2023-05-20T09:13:49;99860.20;;;15.20
71081;BMP180;58740;50.672;18.690;2023-05-20T09:16:17;99866.60;;;15.20
71081;BMP180;58740;50.672;18.690;2023-05-20T09:18:45;99870.20;;;15.30
71081;BMP180;58740;50.672;18.690;2023-05-20T09:21:13;99869.20;;;15.40
71081;BMP180;58740;50.672;18.690;2023-05-20T09:23:46;99865.00;;;15.48
71081;BMP180;58740;50.672;18.690;2023-05-20T09:26:17;99855.00;;;15.50
71081;BMP180;58740;50.672;18.690;2023-05-20T09:28:45;99853.80;;;15.60
71081;BMP180;58740;50.672;18.690;2023-05-20T09:31:13;99845.00;;;15.70
71081;BMP180;58740;50.672;18.690;2023-05-20T09:33:41;99849.80;;;15.78
71081;BMP180;58740;50.672;18.690;2023-05-20T09:36:09;99843.00;;;15.80
71081;BMP180;58740;50.672;18.690;2023-05-20T09:38:39;99841.00;;;15.90
71081;BMP180;58740;50.672;18.690;2023-05-20T09:41:13;99841.40;;;16.04
71081;BMP180;58740;50.672;18.690;2023-05-20T09:43:41;99839.40;;;16.20
71081;BMP180;58740;50.672;18.690;2023-05-20T09:46:10;99829.80;;;16.30
71081;BMP180;58740;50.672;18.690;2023-05-20T09:48:38;99829.20;;;16.40
71081;BMP180;58740;50.672;18.690;2023-05-20T09:51:09;99830.80;;;16.50
71081;BMP180;58740;50.672;18.690;2023-05-20T09:53:39;99829.20;;;16.60
71081;BMP180;58740;50.672;18.690;2023-05-20T09:56:08;99814.80;;;16.70
71081;BMP180;58740;50.672;18.690;2023-05-20T09:58:37;99822.80;;;16.72
71081;BMP180;58740;50.672;18.690;2023-05-20T10:01:05;99812.60;;;16.80
71081;BMP180;58740;50.672;18.690;2023-05-20T10:03:34;99814.20;;;16.90
71081;BMP180;58740;50.672;18.690;2023-05-20T10:12:33;99809.40;;;16.90
71081;BMP180;58740;50.672;18.690;2023-05-20T10:15:59;99804.80;;;16.94
71081;BMP180;58740;50.672;18.690;2023-05-20T10:18:53;99797.60;;;17.00
71081;BMP180;58740;50.672;18.690;2023-05-20T10:21:23;99802.40;;;17.10
71081;BMP180;58740;50.672;18.690;2023-05-20T10:23:51;99798.40;;;17.20
71081;BMP180;58740;50.672;18.690;2023-05-20T10:26:19;99794.60;;;17.30
71081;BMP180;58740;50.672;18.690;2023-05-20T10:28:48;99785.40;;;17.40
71081;BMP180;58740;50.672;18.690;2023-05-20T10:31:21;99791.40;;;17.50
71081;BMP180;58740;50.672;18.690;2023-05-20T10:33:52;99794.80;;;17.60
71081;BMP180;58740;50.672;18.690;2023-05-20T10:36:28;99788.20;;;17.66
71081;BMP180;58740;50.672;18.690;2023-05-20T10:38:59;99794.40;;;17.76
71081;BMP180;58740;50.672;18.690;2023-05-20T10:41:28;99786.60;;;17.84
71081;BMP180;58740;50.672;18.690;2023-05-20T10:44:04;99788.40;;;17.90
71081;BMP180;58740;50.672;18.690;2023-05-20T10:46:34;99783.60;;;17.90
71081;BMP180;58740;50.672;18.690;2023-05-20T10:49:20;99786.60;;;18.00
71081;BMP180;58740;50.672;18.690;2023-05-20T10:51:54;99787.00;;;18.10
71081;BMP180;58740;50.672;18.690;2023-05-20T10:54:22;99781.00;;;18.10
71081;BMP180;58740;50.672;18.690;2023-05-20T10:56:52;99775.40;;;18.10
71081;BMP180;58740;50.672;18.690;2023-05-20T10:59:21;99784.40;;;18.10
71081;BMP180;58740;50.672;18.690;2023-05-20T11:01:49;99776.60;;;18.20
71081;BMP180;58740;50.672;18.690;2023-05-20T11:04:18;99769.00;;;18.30
71081;BMP180;58740;50.672;18.690;2023-05-20T11:06:52;99764.00;;;18.20
71081;BMP180;58740;50.672;18.690;2023-05-20T11:09:21;99763.60;;;18.20
71081;BMP180;58740;50.672;18.690;2023-05-20T11:11:53;99767.60;;;18.26
71081;BMP180;58740;50.672;18.690;2023-05-20T11:14:21;99765.80;;;18.30
71081;BMP180;58740;50.672;18.690;2023-05-20T11:16:56;99761.60;;;18.40
71081;BMP180;58740;50.672;18.690;2023-05-20T11:19:25;99756.80;;;18.50
71081;BMP180;58740;50.672;18.690;2023-05-20T11:21:54;99752.00;;;18.50
71081;BMP180;58740;50.672;18.690;2023-05-20T11:24:27;99751.40;;;18.60
71081;BMP180;58740;50.672;18.690;2023-05-20T11:26:56;99747.40;;;18.60
71081;BMP180;58740;50.672;18.690;2023-05-20T11:29:25;99741.20;;;18.60
71081;BMP180;58740;50.672;18.690;2023-05-20T11:31:54;99738.40;;;18.70
71081;BMP180;58740;50.672;18.690;2023-05-20T11:34:22;99741.60;;;18.70
71081;BMP180;58740;50.672;18.690;2023-05-20T11:36:57;99740.00;;;18.72
71081;BMP180;58740;50.672;18.690;2023-05-20T11:39:29;99737.00;;;18.78
71081;BMP180;58740;50.672;18.690;2023-05-20T11:41:57;99728.20;;;18.80
71081;BMP180;58740;50.672;18.690;2023-05-20T11:44:25;99723.20;;;18.80
71081;BMP180;58740;50.672;18.690;2023-05-20T11:46:59;99722.80;;;18.90
71081;BMP180;58740;50.672;18.690;2023-05-20T11:49:28;99722.40;;;18.90
71081;BMP180;58740;50.672;18.690;2023-05-20T11:51:57;99729.40;;;19.00
71081;BMP180;58740;50.672;18.690;2023-05-20T11:54:25;99726.00;;;19.00
71081;BMP180;58740;50.672;18.690;2023-05-20T11:56:53;99729.20;;;19.00
71081;BMP180;58740;50.672;18.690;2023-05-20T11:59:23;99724.60;;;18.92
71081;BMP180;58740;50.672;18.690;2023-05-20T12:01:51;99719.20;;;19.00
71081;BMP180;58740;50.672;18.690;2023-05-20T12:04:19;99727.40;;;19.02
71081;BMP180;58740;50.672;18.690;2023-05-20T12:06:47;99720.80;;;19.00
71081;BMP180;58740;50.672;18.690;2023-05-20T12:09:15;99720.60;;;19.00
71081;BMP180;58740;50.672;18.690;2023-05-20T12:11:43;99726.40;;;19.00
71081;BMP180;58740;50.672;18.690;2023-05-20T12:14:11;99723.80;;;19.00
71081;BMP180;58740;50.672;18.690;2023-05-20T12:16:39;99715.20;;;19.00
71081;BMP180;58740;50.672;18.690;2023-05-20T12:19:07;99713.40;;;19.00
71081;BMP180;58740;50.672;18.690;2023-05-20T12:21:36;99720.40;;;19.10
71081;BMP180;58740;50.672;18.690;2023-05-20T12:24:03;99713.00;;;19.10
71081;BMP180;58740;50.672;18.690;2023-05-20T12:26:33;99708.00;;;19.16
71081;BMP180;58740;50.672;18.690;2023-05-20T12:29:02;99714.40;;;19.20
71081;BMP180;58740;50.672;18.690;2023-05-20T12:31:30;99708.80;;;19.20
71081;BMP180;58740;50.672;18.690;2023-05-20T12:34:01;99701.80;;;19.24
71081;BMP180;58740;50.672;18.690;2023-05-20T12:36:29;99706.20;;;19.30
71081;BMP180;58740;50.672;18.690;2023-05-20T12:38:58;99694.40;;;19.40
71081;BMP180;58740;50.672;18.690;2023-05-20T12:41:25;99691.20;;;19.40
71081;BMP180;58740;50.672;18.690;2023-05-20T12:43:53;99689.80;;;19.48
71081;BMP180;58740;50.672;18.690;2023-05-20T12:46:21;99693.60;;;19.50
71081;BMP180;58740;50.672;18.690;2023-05-20T12:48:49;99687.20;;;19.58
71081;BMP180;58740;50.672;18.690;2023-05-20T12:51:17;99682.60;;;19.60
71081;BMP180;58740;50.672;18.690;2023-05-20T12:53:46;99687.80;;;19.60
71081;BMP180;58740;50.672;18.690;2023-05-20T12:56:14;99681.60;;;19.60
71081;BMP180;58740;50.672;18.690;2023-05-20T12:58:42;99685.80;;;19.70
71081;BMP180;58740;50.672;18.690;2023-05-20T13:01:10;99678.20;;;19.70
71081;BMP180;58740;50.672;18.690;2023-05-20T13:03:38;99684.60;;;19.70
71081;BMP180;58740;50.672;18.690;2023-05-20T13:06:06;99680.00;;;19.78
71081;BMP180;58740;50.672;18.690;2023-05-20T13:08:33;99678.40;;;19.80
71081;BMP180;58740;50.672;18.690;2023-05-20T13:11:01;99666.60;;;19.80
71081;BMP180;58740;50.672;18.690;2023-05-20T13:13:29;99670.00;;;19.80
71081;BMP180;58740;50.672;18.690;2023-05-20T13:15:57;99667.00;;;19.90
71081;BMP180;58740;50.672;18.690;2023-05-20T13:18:25;99665.60;;;19.92
71081;BMP180;58740;50.672;18.690;2023-05-20T13:20:53;99660.40;;;19.98
71081;BMP180;58740;50.672;18.690;2023-05-20T13:23:20;99659.60;;;20.00
71081;BMP180;58740;50.672;18.690;2023-05-20T13:25:48;99658.00;;;20.00
71081;BMP180;58740;50.672;18.690;2023-05-20T13:28:16;99655.80;;;20.08
71081;BMP180;58740;50.672;18.690;2023-05-20T13:30:47;99658.20;;;20.10
71081;BMP180;58740;50.672;18.690;2023-05-20T13:33:15;99651.60;;;20.20
71081;BMP180;58740;50.672;18.690;2023-05-20T13:35:42;99649.20;;;20.20
71081;BMP180;58740;50.672;18.690;2023-05-20T13:38:10;99651.20;;;20.20
71081;BMP180;58740;50.672;18.690;2023-05-20T13:40:38;99651.60;;;20.20
71081;BMP180;58740;50.672;18.690;2023-05-20T13:43:06;99651.00;;;20.20
71081;BMP180;58740;50.672;18.690;2023-05-20T13:45:33;99643.40;;;20.20
71081;BMP180;58740;50.672;18.690;2023-05-20T13:48:01;99640.60;;;20.20
71081;BMP180;58740;50.672;18.690;2023-05-20T13:50:29;99642.40;;;20.20
71081;BMP180;58740;50.672;18.690;2023-05-20T13:52:57;99642.00;;;20.26
71081;BMP180;58740;50.672;18.690;2023-05-20T13:55:25;99640.40;;;20.30
71081;BMP180;58740;50.672;18.690;2023-05-20T13:57:53;99639.00;;;20.40
71081;BMP180;58740;50.672;18.690;2023-05-20T14:00:22;99635.20;;;20.40
71081;BMP180;58740;50.672;18.690;2023-05-20T14:02:49;99626.80;;;20.40
71081;BMP180;58740;50.672;18.690;2023-05-20T14:05:17;99625.20;;;20.44
71081;BMP180;58740;50.672;18.690;2023-05-20T14:07:45;99623.00;;;20.50
71081;BMP180;58740;50.672;18.690;2023-05-20T14:10:13;99620.20;;;20.50
71081;BMP180;58740;50.672;18.690;2023-05-20T14:12:41;99614.80;;;20.60